Time;durP1;ratioP1;P1;durP2;ratioP2;P2;SDS_P1;SDS_P2;PMS_P1;PMS_P2;Temp;Humidity;BMP_temperature;BMP_pressure;BME280_temperature;BME280_humidity;BME280_pressure;Samples;Min_cycle;Max_cycle;Signal;HPM_P1;HPM_P2
2022/11/14 00:00:09;;;;;;;58.10;36.58;;;6.80;99.90;;;;;;4960336;28;20039;-78
2022/11/14 00:02:35;;;;;;;59.80;37.13;;;6.80;99.90;;;;;;4975152;28;20043;-77
2022/11/14 00:05:01;;;;;;;66.72;40.78;;;6.80;99.90;;;;;;4973662;28;20055;-78
2022/11/14 00:07:31;;;;;;;63.70;39.10;;;6.70;99.90;;;;;;4963842;28;20057;-78
2022/11/14 00:09:57;;;;;;;58.45;35.20;;;6.70;99.90;;;;;;4972439;28;20045;-77
2022/11/14 00:12:22;;;;;;;62.92;39.75;;;6.70;99.90;;;;;;4974861;28;20042;-79
2022/11/14 00:14:48;;;;;;;63.08;39.40;;;6.90;99.90;;;;;;4944452;28;20387;-80
2022/11/14 00:17:14;;;;;;;63.92;39.30;;;7.20;99.90;;;;;;4962792;28;20479;-79
2022/11/14 00:19:40;;;;;;;59.70;37.40;;;6.70;99.90;;;;;;4973841;28;20050;-78
2022/11/14 00:22:06;;;;;;;67.88;41.85;;;6.70;99.90;;;;;;4977306;28;20064;-79
2022/11/14 00:24:31;;;;;;;60.55;37.92;;;6.80;99.90;;;;;;5002591;28;20054;-78
2022/11/14 00:26:57;;;;;;;59.42;36.58;;;6.80;99.90;;;;;;4977125;28;20074;-76
2022/11/14 00:29:23;;;;;;;67.05;40.85;;;6.80;99.90;;;;;;4981089;28;20535;-79
2022/11/14 00:31:48;;;;;;;66.75;40.85;;;6.70;99.90;;;;;;4974061;28;20051;-77
2022/11/14 00:34:14;;;;;;;62.72;37.55;;;6.70;99.90;;;;;;4973018;28;20090;-77
2022/11/14 00:36:40;;;;;;;72.32;43.70;;;6.80;99.90;;;;;;4971199;28;20081;-79
2022/11/14 00:39:06;;;;;;;68.10;41.55;;;6.70;99.90;;;;;;4995378;28;20042;-78
2022/11/14 00:41:31;;;;;;;64.10;40.92;;;6.70;99.90;;;;;;4982716;28;20121;-78
2022/11/14 00:43:57;;;;;;;66.57;39.08;;;6.70;99.90;;;;;;4974897;28;20043;-77
2022/11/14 00:46:23;;;;;;;63.83;38.67;;;6.70;99.90;;;;;;4968047;28;20051;-77
2022/11/14 00:48:48;;;;;;;66.10;40.42;;;6.70;99.90;;;;;;4979538;28;20054;-77
2022/11/14 00:51:14;;;;;;;63.75;40.78;;;6.70;99.90;;;;;;4971245;28;20502;-79
2022/11/14 00:53:40;;;;;;;71.20;43.50;;;6.80;99.90;;;;;;4962741;28;20125;-79
2022/11/14 00:56:05;;;;;;;69.25;43.78;;;6.70;99.90;;;;;;4973652;28;20057;-79
2022/11/14 00:58:31;;;;;;;65.07;41.17;;;6.70;99.90;;;;;;4973580;28;20047;-79
2022/11/14 01:00:57;;;;;;;72.90;43.70;;;6.60;99.90;;;;;;4974166;28;20054;-78
2022/11/14 01:03:23;;;;;;;70.97;42.95;;;6.70;99.90;;;;;;4972341;28;20061;-77
2022/11/14 01:05:50;;;;;;;67.63;41.58;;;6.60;99.90;;;;;;4973704;28;20055;-79
2022/11/14 01:08:18;;;;;;;67.40;42.75;;;6.60;99.90;;;;;;4972679;28;20064;-79
2022/11/14 01:10:48;;;;;;;70.45;42.50;;;6.60;99.90;;;;;;4973601;28;20054;-78
2022/11/14 01:13:14;;;;;;;72.47;44.05;;;6.60;99.90;;;;;;4973272;28;20153;-78
2022/11/14 01:15:45;;;;;;;72.60;44.63;;;6.50;99.90;;;;;;4960061;28;20051;-78
2022/11/14 01:18:17;;;;;;;71.22;45.30;;;6.50;99.90;;;;;;4977575;28;20112;-79
2022/11/14 01:20:46;;;;;;;70.35;44.92;;;6.50;99.90;;;;;;4986788;28;20411;-79
2022/11/14 01:23:13;;;;;;;75.25;45.83;;;6.50;99.90;;;;;;4971198;28;20129;-79
2022/11/14 01:25:40;;;;;;;72.55;45.33;;;6.40;99.90;;;;;;4973318;28;20454;-79
2022/11/14 01:28:08;;;;;;;82.43;48.70;;;6.40;99.90;;;;;;4973293;28;20046;-79
2022/11/14 01:30:34;;;;;;;74.93;46.08;;;6.40;99.90;;;;;;4959400;28;20451;-79
2022/11/14 01:33:00;;;;;;;77.47;46.58;;;6.40;99.90;;;;;;4972160;28;20086;-79
2022/11/14 01:35:26;;;;;;;76.07;46.63;;;6.40;99.90;;;;;;4973486;28;20051;-78
2022/11/14 01:37:51;;;;;;;81.72;48.33;;;7.20;99.90;;;;;;4972820;28;20053;-79
2022/11/14 01:40:17;;;;;;;78.00;46.83;;;6.30;99.90;;;;;;4963805;28;20125;-79
2022/11/14 01:43:22;;;;;;;75.32;46.53;;;6.40;99.90;;;;;;4982897;28;20057;-78
2022/11/14 01:46:12;;;;;;;75.40;45.65;;;6.40;99.90;;;;;;4985632;28;20486;-78
2022/11/14 01:48:54;;;;;;;76.03;44.63;;;6.40;99.90;;;;;;4960808;28;20057;-79
2022/11/14 01:51:24;;;;;;;81.75;48.40;;;6.40;99.90;;;;;;4975958;28;20046;-79
2022/11/14 01:53:53;;;;;;;76.85;46.28;;;6.40;99.90;;;;;;4982529;28;20097;-79
2022/11/14 01:56:32;;;;;;;79.30;47.50;;;6.70;99.90;;;;;;4972584;28;20051;-77
2022/11/14 01:59:12;;;;;;;78.68;44.13;;;6.40;99.90;;;;;;4964243;28;20043;-77
2022/11/14 02:01:44;;;;;;;83.00;44.28;;;6.50;99.90;;;;;;4969302;28;20058;-77
2022/11/14 02:04:10;;;;;;;;;;;6.40;99.90;;;;;;4973007;28;20090;-79
2022/11/14 02:06:38;;;;;;;92.05;50.60;;;6.40;99.90;;;;;;4958974;28;19922;-77
2022/11/14 02:09:06;;;;;;;83.05;47.35;;;6.40;99.90;;;;;;4957113;28;20050;-78
2022/11/14 02:11:36;;;;;;;80.53;44.92;;;6.40;99.90;;;;;;4969902;28;20055;-77
2022/11/14 02:14:02;;;;;;;58.88;32.20;;;6.40;99.90;;;;;;4956763;28;20055;-77
2022/11/14 02:16:27;;;;;;;89.03;51.30;;;6.50;99.90;;;;;;4943510;28;20062;-78
2022/11/14 02:18:53;;;;;;;92.72;50.85;;;6.40;99.90;;;;;;4970578;28;20459;-79
2022/11/14 02:21:19;;;;;;;91.93;50.83;;;6.40;99.90;;;;;;4973083;28;20050;-79
2022/11/14 02:23:45;;;;;;;88.47;50.30;;;6.90;99.90;;;;;;4954472;28;20047;-79
2022/11/14 02:26:10;;;;;;;95.22;52.65;;;6.40;99.90;;;;;;4962381;28;20097;-78
2022/11/14 02:28:36;;;;;;;91.47;52.33;;;6.50;99.90;;;;;;4956256;28;20057;-78
2022/11/14 02:31:01;;;;;;;87.20;49.15;;;6.50;99.90;;;;;;4957031;28;20078;-77
2022/11/14 02:33:28;;;;;;;81.93;44.78;;;6.50;99.90;;;;;;4971590;28;20057;-77
2022/11/14 02:35:54;;;;;;;83.15;47.55;;;6.60;99.90;;;;;;4956228;28;20109;-78
2022/11/14 02:38:19;;;;;;;89.57;51.90;;;6.60;99.90;;;;;;4972296;28;20050;-78
2022/11/14 02:40:45;;;;;;;92.05;52.35;;;6.50;99.90;;;;;;4972263;28;20053;-79
2022/11/14 02:43:11;;;;;;;87.15;50.30;;;6.50;99.90;;;;;;4972633;28;20446;-77
2022/11/14 02:45:37;;;;;;;81.57;49.38;;;6.50;99.90;;;;;;4944846;28;20075;-78
2022/11/14 02:48:02;;;;;;;84.95;47.90;;;6.50;99.90;;;;;;4971536;28;20050;-78
2022/11/14 02:50:28;;;;;;;92.13;51.47;;;6.60;99.90;;;;;;4971353;28;20047;-79
2022/11/14 02:52:54;;;;;;;84.15;49.22;;;6.60;99.90;;;;;;4972312;28;20085;-80
2022/11/14 02:55:20;;;;;;;92.78;52.78;;;6.50;99.90;;;;;;4967580;28;20054;-78
2022/11/14 02:57:46;;;;;;;83.72;49.60;;;6.50;99.90;;;;;;4964326;28;20050;-77
2022/11/14 03:00:12;;;;;;;82.82;48.25;;;6.50;99.90;;;;;;4956022;28;20391;-78
2022/11/14 03:02:38;;;;;;;81.05;47.38;;;6.50;99.90;;;;;;4970262;28;20051;-78
2022/11/14 03:05:04;;;;;;;86.25;49.65;;;6.60;99.90;;;;;;4972298;28;20065;-78
2022/11/14 03:07:30;;;;;;;86.57;50.78;;;6.50;99.90;;;;;;4975392;28;20055;-79
2022/11/14 03:09:55;;;;;;;87.88;50.53;;;6.50;99.90;;;;;;4975931;28;20043;-78
2022/11/14 03:12:21;;;;;;;88.93;50.72;;;6.50;99.90;;;;;;4964601;28;20129;-78
2022/11/14 03:14:47;;;;;;;82.35;49.50;;;6.50;99.90;;;;;;4943716;28;20514;-77
2022/11/14 03:17:12;;;;;;;77.30;46.28;;;6.50;99.90;;;;;;4977165;28;20060;-78
2022/11/14 03:19:38;;;;;;;81.40;48.15;;;6.60;99.90;;;;;;4974287;28;20047;-77
2022/11/14 03:22:04;;;;;;;75.38;44.55;;;6.60;99.90;;;;;;4975700;28;20085;-77
2022/11/14 03:24:29;;;;;;;78.15;47.00;;;6.60;99.90;;;;;;4975782;28;20054;-78
2022/11/14 03:26:55;;;;;;;76.97;47.47;;;6.60;99.90;;;;;;4969964;28;20051;-80
2022/11/14 03:29:21;;;;;;;75.30;46.25;;;6.60;99.90;;;;;;4947132;28;20491;-78
2022/11/14 03:31:46;;;;;;;75.68;45.45;;;6.60;99.90;;;;;;4975592;28;20062;-79
2022/11/14 03:34:12;;;;;;;79.18;47.13;;;6.60;99.90;;;;;;4969495;28;20139;-78
2022/11/14 03:36:38;;;;;;;79.05;49.33;;;6.60;99.90;;;;;;4975874;28;20047;-78
2022/11/14 03:39:05;;;;;;;76.63;46.78;;;6.60;99.90;;;;;;4974761;28;20043;-79
2022/11/14 03:41:31;;;;;;;70.15;42.13;;;6.60;99.90;;;;;;4975634;28;20062;-77
2022/11/14 03:43:57;;;;;;;77.00;46.65;;;6.60;99.90;;;;;;4974798;28;20394;-78
2022/11/14 03:46:23;;;;;;;78.85;47.25;;;6.60;99.90;;;;;;4975638;28;20523;-79
2022/11/14 03:48:48;;;;;;;83.00;50.47;;;6.60;99.90;;;;;;4958127;28;20189;-79
2022/11/14 03:51:14;;;;;;;81.18;48.17;;;6.50;99.90;;;;;;4974611;28;20056;-80
2022/11/14 03:53:40;;;;;;;80.43;47.80;;;6.50;99.90;;;;;;4976553;28;20042;-80
2022/11/14 03:56:06;;;;;;;77.57;47.25;;;6.50;99.90;;;;;;4957859;28;20047;-79
2022/11/14 03:58:31;;;;;;;75.97;45.85;;;6.60;99.90;;;;;;4967627;28;20051;-79
2022/11/14 04:00:57;;;;;;;69.47;39.28;;;6.50;99.90;;;;;;4960882;28;20053;-78
2022/11/14 04:03:23;;;;;;;76.85;46.25;;;6.60;99.90;;;;;;4974179;28;20053;-78
2022/11/14 04:05:50;;;;;;;75.07;45.85;;;6.60;99.90;;;;;;4974708;28;20051;-78
2022/11/14 04:08:16;;;;;;;76.50;47.33;;;6.60;99.90;;;;;;4974802;28;20049;-78
2022/11/14 04:10:42;;;;;;;66.20;40.92;;;6.60;99.90;;;;;;4974559;28;20439;-76
2022/11/14 04:13:08;;;;;;;76.20;49.38;;;6.60;99.90;;;;;;4974518;28;20058;-78
2022/11/14 04:15:33;;;;;;;72.95;43.65;;;6.60;99.90;;;;;;4974894;28;20058;-77
2022/11/14 04:17:59;;;;;;;75.13;43.67;;;6.60;99.90;;;;;;4973462;28;20054;-78
2022/11/14 04:20:25;;;;;;;74.75;46.08;;;6.60;99.90;;;;;;4974938;28;20058;-78
2022/11/14 04:22:51;;;;;;;74.88;47.30;;;6.60;99.90;;;;;;4974336;28;20073;-78
2022/11/14 04:25:17;;;;;;;72.07;42.92;;;6.60;99.90;;;;;;4976115;28;20074;-77
2022/11/14 04:27:42;;;;;;;68.13;45.63;;;6.60;99.90;;;;;;4979617;28;20094;-77
2022/11/14 04:30:09;;;;;;;74.82;46.60;;;6.70;99.90;;;;;;4968426;28;20054;-77
2022/11/14 04:32:34;;;;;;;72.18;44.50;;;6.60;99.90;;;;;;4958009;28;20042;-76
2022/11/14 04:35:00;;;;;;;76.97;46.72;;;6.60;99.90;;;;;;4961947;28;20055;-78
2022/11/14 04:37:26;;;;;;;73.47;45.53;;;6.60;99.90;;;;;;4972114;28;20167;-77
2022/11/14 04:39:51;;;;;;;76.15;46.60;;;6.60;99.90;;;;;;4973775;28;20405;-79
2022/11/14 04:42:17;;;;;;;76.32;47.75;;;6.60;99.90;;;;;;4974192;28;20054;-79
2022/11/14 04:44:43;;;;;;;70.82;44.45;;;6.60;99.90;;;;;;4973998;28;20139;-79
2022/11/14 04:47:08;;;;;;;80.10;47.70;;;6.60;99.90;;;;;;4958078;28;20054;-79
2022/11/14 04:49:34;;;;;;;72.60;41.72;;;6.60;99.90;;;;;;4956907;28;20050;-79
2022/11/14 04:52:00;;;;;;;72.38;44.50;;;6.60;99.90;;;;;;4974136;28;20066;-76
2022/11/14 04:54:26;;;;;;;75.18;45.58;;;6.60;99.90;;;;;;4973659;28;20402;-78
2022/11/14 04:56:51;;;;;;;81.57;47.78;;;6.60;99.90;;;;;;4957908;28;20121;-78
2022/11/14 04:59:17;;;;;;;79.75;48.20;;;6.50;99.90;;;;;;4953980;28;20054;-78
2022/11/14 05:01:43;;;;;;;79.85;47.08;;;6.50;99.90;;;;;;4964866;28;20054;-78
2022/11/14 05:04:08;;;;;;;77.15;46.65;;;6.50;99.90;;;;;;4972385;28;20047;-77
2022/11/14 05:06:34;;;;;;;83.22;48.25;;;6.50;99.90;;;;;;4974997;28;20173;-79
2022/11/14 05:09:00;;;;;;;81.90;46.45;;;6.70;99.90;;;;;;4974616;28;20090;-79
2022/11/14 05:11:25;;;;;;;84.68;49.05;;;6.40;99.90;;;;;;4935521;29;20043;-78
2022/11/14 05:13:51;;;;;;;80.10;45.15;;;6.40;99.90;;;;;;4967689;28;20058;-77
2022/11/14 05:16:17;;;;;;;75.18;44.60;;;6.40;99.90;;;;;;4974519;28;20051;-78
2022/11/14 05:18:42;;;;;;;78.05;44.70;;;6.60;99.90;;;;;;4972702;28;20305;-77
2022/11/14 05:21:15;;;;;;;79.85;46.50;;;6.50;99.90;;;;;;4970925;28;20138;-78
2022/11/14 05:23:40;;;;;;;;;;;6.40;99.90;;;;;;4948043;28;20043;-78
2022/11/14 05:26:11;;;;;;;82.38;43.28;;;6.30;99.90;;;;;;4973352;28;20372;-79
2022/11/14 05:28:37;;;;;;;82.68;47.28;;;6.30;99.90;;;;;;4972729;28;20042;-79
2022/11/14 05:31:04;;;;;;;82.28;45.55;;;6.30;99.90;;;;;;4973480;28;20061;-79
2022/11/14 05:33:30;;;;;;;83.88;46.90;;;6.30;99.90;;;;;;4972170;28;20054;-79
2022/11/14 05:36:00;;;;;;;89.03;48.85;;;6.30;99.90;;;;;;4972625;28;20101;-79
2022/11/14 05:38:26;;;;;;;84.53;47.55;;;6.40;99.90;;;;;;4973136;28;20106;-79
2022/11/14 05:40:51;;;;;;;91.22;50.63;;;6.30;99.90;;;;;;4972858;28;20112;-79
2022/11/14 05:43:17;;;;;;;93.28;48.80;;;6.20;99.90;;;;;;4942810;28;20047;-78
2022/11/14 05:45:43;;;;;;;93.20;50.00;;;6.20;99.90;;;;;;4982612;28;20490;-78
2022/11/14 05:48:08;;;;;;;92.97;50.90;;;6.20;99.90;;;;;;4972423;28;20403;-79
2022/11/14 05:50:34;;;;;;;87.57;47.22;;;7.20;99.90;;;;;;4956946;28;20048;-78
2022/11/14 05:53:00;;;;;;;88.63;48.58;;;6.20;99.90;;;;;;4968219;28;20062;-79
2022/11/14 05:55:25;;;;;;;90.07;46.90;;;6.20;99.90;;;;;;4970645;28;20057;-79
2022/11/14 05:57:51;;;;;;;88.55;48.05;;;6.20;99.90;;;;;;4957133;28;20455;-80
2022/11/14 06:00:17;;;;;;;89.90;47.13;;;6.70;99.90;;;;;;4972974;28;20091;-74
2022/11/14 06:02:44;;;;;;;89.93;50.40;;;6.20;99.90;;;;;;4961145;28;20471;-78
2022/11/14 06:05:11;;;;;;;102.25;53.50;;;6.20;99.90;;;;;;4940075;28;20040;-76
2022/11/14 06:07:37;;;;;;;95.40;51.13;;;6.30;99.90;;;;;;4955360;28;20046;-78
2022/11/14 06:10:04;;;;;;;92.30;47.85;;;6.20;99.90;;;;;;4959657;28;20406;-78
2022/11/14 06:12:31;;;;;;;85.65;46.33;;;6.10;99.90;;;;;;4984141;28;20126;-78
2022/11/14 06:14:57;;;;;;;91.80;49.95;;;6.20;99.90;;;;;;4956535;28;20074;-79
2022/11/14 06:17:22;;;;;;;87.82;45.70;;;6.20;99.90;;;;;;4958154;28;20436;-77
2022/11/14 06:19:48;;;;;;;92.95;48.90;;;6.10;99.90;;;;;;4969664;28;20051;-78
2022/11/14 06:22:14;;;;;;;94.60;51.53;;;6.10;99.90;;;;;;4970960;28;20040;-79
2022/11/14 06:24:39;;;;;;;93.45;48.80;;;6.00;99.90;;;;;;4952949;28;20050;-78
2022/11/14 06:27:05;;;;;;;95.10;50.17;;;6.00;99.90;;;;;;4955202;28;20479;-78
2022/11/14 06:29:30;;;;;;;89.90;47.83;;;6.00;99.90;;;;;;4961703;28;20046;-78
2022/11/14 06:31:56;;;;;;;86.90;47.80;;;6.00;99.90;;;;;;4956564;28;20761;-79
2022/11/14 06:34:22;;;;;;;90.60;49.33;;;6.00;99.90;;;;;;4971705;28;20050;-78
2022/11/14 06:36:47;;;;;;;94.07;51.95;;;6.40;99.90;;;;;;4956749;28;20050;-78
2022/11/14 06:39:13;;;;;;;94.38;50.42;;;5.90;99.90;;;;;;4956321;28;20050;-78
2022/11/14 06:41:39;;;;;;;92.13;50.00;;;5.90;99.90;;;;;;4960274;28;20430;-78
2022/11/14 06:44:07;;;;;;;92.07;49.92;;;5.90;99.90;;;;;;4975954;28;20042;-78
2022/11/14 06:46:32;;;;;;;97.95;50.13;;;5.90;99.90;;;;;;4976639;28;20050;-78
2022/11/14 06:48:58;;;;;;;92.72;50.33;;;5.90;99.90;;;;;;4956938;28;20042;-78
2022/11/14 06:51:23;;;;;;;91.43;48.55;;;5.90;99.90;;;;;;4976393;28;20086;-79
2022/11/14 06:53:49;;;;;;;93.47;51.22;;;5.90;99.90;;;;;;4976223;28;20088;-78
2022/11/14 06:56:16;;;;;;;84.63;43.38;;;5.80;99.90;;;;;;4992430;28;20047;-77
2022/11/14 06:58:44;;;;;;;93.10;49.65;;;5.80;99.90;;;;;;4976337;28;20054;-78
2022/11/14 07:01:19;;;;;;;86.32;45.88;;;5.80;99.90;;;;;;4958101;28;20079;-77
2022/11/14 07:03:45;;;;;;;96.50;52.90;;;5.80;99.90;;;;;;4971731;28;20499;-78
2022/11/14 07:06:17;;;;;;;96.25;52.15;;;5.90;99.90;;;;;;4959024;28;20106;-77
2022/11/14 07:08:43;;;;;;;;;;;5.80;99.90;;;;;;4976575;28;20047;-77
2022/11/14 07:11:10;;;;;;;99.47;52.22;;;5.80;99.90;;;;;;4991984;28;20286;-78
2022/11/14 07:13:37;;;;;;;94.97;49.47;;;6.00;99.90;;;;;;4975804;28;20050;-77
2022/11/14 07:16:04;;;;;;;92.53;50.88;;;5.80;99.90;;;;;;4975539;28;20053;-78
2022/11/14 07:18:31;;;;;;;97.57;52.05;;;5.80;99.90;;;;;;4966183;28;20109;-78
2022/11/14 07:21:02;;;;;;;92.03;49.92;;;5.80;99.90;;;;;;4970328;28;20125;-79
2022/11/14 07:23:30;;;;;;;96.32;52.03;;;5.70;99.90;;;;;;4975737;28;20134;-78
2022/11/14 07:26:05;;;;;;;93.63;49.95;;;5.80;99.90;;;;;;4975367;28;20050;-78
2022/11/14 07:28:32;;;;;;;92.78;50.10;;;5.80;99.90;;;;;;4968310;28;20106;-78
2022/11/14 07:30:58;;;;;;;90.72;49.70;;;5.80;99.90;;;;;;4956668;28;20459;-78
2022/11/14 07:33:24;;;;;;;85.22;48.13;;;5.90;99.90;;;;;;4973557;28;20112;-79
2022/11/14 07:35:50;;;;;;;83.25;47.95;;;5.80;99.90;;;;;;4964325;28;20126;-78
2022/11/14 07:38:16;;;;;;;78.85;44.45;;;5.80;99.90;;;;;;4972486;28;20053;-78
2022/11/14 07:40:42;;;;;;;79.05;44.00;;;5.90;99.90;;;;;;4975539;28;20046;-77
2022/11/14 07:43:07;;;;;;;93.45;49.83;;;5.90;99.90;;;;;;4974964;28;20043;-78
2022/11/14 07:45:33;;;;;;;91.18;49.38;;;5.80;99.90;;;;;;4959382;28;20141;-78
2022/11/14 07:48:01;;;;;;;81.45;46.40;;;5.80;99.90;;;;;;4974550;28;20053;-79
2022/11/14 07:50:28;;;;;;;84.05;46.55;;;5.90;99.90;;;;;;4974635;28;20038;-78
2022/11/14 07:52:55;;;;;;;83.45;46.60;;;5.90;99.90;;;;;;4976004;28;20101;-78
2022/11/14 07:55:22;;;;;;;85.40;47.75;;;5.90;99.90;;;;;;4962899;28;20058;-78
2022/11/14 07:57:51;;;;;;;83.03;46.22;;;5.90;99.90;;;;;;4975162;28;20058;-78
2022/11/14 08:00:17;;;;;;;78.28;45.65;;;5.90;99.90;;;;;;4974834;28;20050;-77
2022/11/14 08:02:44;;;;;;;82.50;46.33;;;5.90;99.90;;;;;;4974732;28;20510;-78
2022/11/14 08:05:10;;;;;;;84.47;47.45;;;5.90;99.90;;;;;;4973726;28;20057;-79
2022/11/14 08:07:35;;;;;;;80.82;46.30;;;5.90;99.90;;;;;;4963921;28;20043;-79
2022/11/14 08:10:01;;;;;;;82.53;46.28;;;5.90;99.90;;;;;;4975156;28;20480;-79
2022/11/14 08:12:27;;;;;;;85.88;48.42;;;6.00;99.90;;;;;;4954926;28;20102;-79
2022/11/14 08:14:52;;;;;;;91.72;50.92;;;6.00;99.90;;;;;;4961056;28;20043;-78
2022/11/14 08:17:22;;;;;;;85.07;49.25;;;6.80;99.90;;;;;;4958309;28;20043;-78
2022/11/14 08:19:48;;;;;;;88.57;49.30;;;6.00;99.90;;;;;;4956126;28;20073;-78
2022/11/14 08:22:14;;;;;;;85.28;44.85;;;6.00;99.90;;;;;;4954304;28;20047;-77
2022/11/14 08:24:40;;;;;;;89.10;49.30;;;6.10;99.90;;;;;;4947138;28;20097;-78
2022/11/14 08:27:05;;;;;;;91.90;48.78;;;6.10;99.90;;;;;;4956486;28;20101;-78
2022/11/14 08:29:31;;;;;;;87.75;49.65;;;6.10;99.90;;;;;;4976955;28;20138;-79
2022/11/14 08:31:57;;;;;;;81.38;46.20;;;6.10;99.90;;;;;;4975032;28;20065;-79
2022/11/14 08:34:24;;;;;;;88.18;49.13;;;6.10;99.90;;;;;;4940535;28;20062;-83
2022/11/14 08:36:50;;;;;;;80.03;43.65;;;6.20;99.90;;;;;;4968775;28;20090;-78
2022/11/14 08:39:15;;;;;;;85.15;46.88;;;6.20;99.90;;;;;;4979148;28;20074;-77
2022/11/14 08:41:41;;;;;;;77.57;45.15;;;6.30;99.90;;;;;;4955603;28;20308;-79
2022/11/14 08:44:07;;;;;;;77.72;43.83;;;6.40;99.90;;;;;;4960333;28;20054;-78
2022/11/14 08:46:32;;;;;;;80.10;45.40;;;6.30;99.90;;;;;;4962445;28;20127;-78
2022/11/14 08:48:58;;;;;;;75.82;43.70;;;6.40;99.90;;;;;;4977655;28;20051;-78
2022/11/14 08:51:24;;;;;;;70.28;40.97;;;6.40;99.90;;;;;;4972187;28;20035;-77
2022/11/14 08:53:51;;;;;;;76.32;42.72;;;6.50;99.90;;;;;;4961935;28;20487;-78
2022/11/14 08:56:17;;;;;;;76.72;45.60;;;6.50;99.90;;;;;;4959738;28;20047;-77
2022/11/14 08:58:42;;;;;;;84.53;47.08;;;6.50;99.90;;;;;;4976721;28;20506;-78
2022/11/14 09:01:12;;;;;;;79.63;45.40;;;6.50;99.90;;;;;;4961066;28;20047;-76
2022/11/14 09:03:37;;;;;;;73.40;42.97;;;6.50;99.90;;;;;;4968106;28;20043;-78
2022/11/14 09:06:03;;;;;;;70.07;42.13;;;6.50;99.90;;;;;;4979834;28;20055;-78
2022/11/14 09:08:30;;;;;;;68.10;37.88;;;6.60;99.90;;;;;;4967072;28;20475;-78
2022/11/14 09:10:59;;;;;;;68.18;39.60;;;6.60;99.90;;;;;;4965330;28;20061;-78
2022/11/14 09:13:26;;;;;;;66.20;41.42;;;6.50;99.90;;;;;;4957037;28;20054;-78
2022/11/14 09:15:52;;;;;;;58.13;35.88;;;6.50;99.90;;;;;;4945023;28;20479;-78
2022/11/14 09:18:18;;;;;;;66.85;42.08;;;6.50;99.90;;;;;;4962569;28;20070;-79
2022/11/14 09:20:43;;;;;;;68.53;40.38;;;6.50;99.90;;;;;;4943935;28;20063;-79
2022/11/14 09:23:09;;;;;;;66.75;38.85;;;6.70;99.90;;;;;;4980359;28;20160;-79
2022/11/14 09:25:35;;;;;;;65.35;41.42;;;6.50;99.90;;;;;;4947332;28;20047;-78
2022/11/14 09:28:06;;;;;;;62.13;40.28;;;6.50;99.90;;;;;;4944432;28;20594;-78
2022/11/14 09:30:32;;;;;;;62.70;40.28;;;6.60;99.90;;;;;;4937547;29;20061;-78
2022/11/14 09:33:00;;;;;;;63.08;40.28;;;6.60;99.90;;;;;;4935435;29;20117;-79
2022/11/14 09:35:26;;;;;;;61.50;39.08;;;6.60;99.90;;;;;;4935513;29;20050;-79
2022/11/14 09:38:03;;;;;;;63.05;39.28;;;6.60;99.90;;;;;;4949269;28;20079;-76
2022/11/14 09:40:33;;;;;;;58.75;35.97;;;6.70;99.90;;;;;;4945431;29;20113;-78
2022/11/14 09:43:26;;;;;;;60.58;38.58;;;7.10;99.90;;;;;;4942558;29;20063;-78
2022/11/14 09:45:52;;;;;;;55.00;36.13;;;6.90;99.90;;;;;;4961515;28;20484;-77
2022/11/14 09:48:24;;;;;;;60.00;37.25;;;7.10;99.90;;;;;;4935393;29;20436;-79
2022/11/14 09:51:14;;;;;;;52.95;35.53;;;7.10;99.90;;;;;;4943038;29;20047;-78
2022/11/14 09:54:24;;;;;;;54.03;34.97;;;7.20;99.90;;;;;;4945445;29;20460;-76
2022/11/14 09:56:50;;;;;;;56.15;35.45;;;7.20;99.90;;;;;;4943906;28;20055;-78
2022/11/14 09:59:16;;;;;;;53.58;36.13;;;7.20;99.90;;;;;;4946796;29;20051;-78
2022/11/14 10:02:04;;;;;;;53.45;34.15;;;7.30;99.90;;;;;;4940505;29;20048;-78
2022/11/14 10:04:55;;;;;;;52.88;35.55;;;7.60;99.90;;;;;;4930732;29;20156;-78
2022/11/14 10:07:29;;;;;;;53.30;36.00;;;7.30;99.90;;;;;;4946065;29;20059;-78
2022/11/14 10:10:31;;;;;;;53.88;34.72;;;7.40;99.90;;;;;;4945829;28;20150;-79
2022/11/14 10:13:29;;;;;;;52.88;35.33;;;7.60;99.90;;;;;;4962580;28;20047;-77
2022/11/14 10:16:01;;;;;;;53.90;36.40;;;7.80;99.90;;;;;;4948544;28;20043;-80
2022/11/14 10:18:32;;;;;;;52.05;36.33;;;8.00;99.90;;;;;;4947631;28;20583;-78
2022/11/14 10:21:09;;;;;;;45.65;28.48;;;8.00;99.90;;;;;;4974316;28;20051;-77
2022/11/14 10:24:03;;;;;;;44.13;27.30;;;8.10;99.90;;;;;;4949868;29;20059;-76
2022/11/14 10:26:32;;;;;;;47.88;30.65;;;8.10;99.90;;;;;;4976142;28;20055;-75
2022/11/14 10:29:29;;;;;;;46.05;31.75;;;8.10;99.90;;;;;;4970125;28;20067;-77
2022/11/14 10:32:00;;;;;;;47.90;32.28;;;8.20;99.90;;;;;;4954465;29;20570;-78
2022/11/14 10:34:41;;;;;;;51.40;34.30;;;8.20;99.90;;;;;;4946170;29;20141;-78
2022/11/14 10:37:44;;;;;;;47.88;32.22;;;8.20;99.90;;;;;;4963736;28;20480;-77
2022/11/14 10:40:17;;;;;;;49.15;31.45;;;8.10;99.90;;;;;;4933695;28;20050;-75
2022/11/14 10:42:47;;;;;;;43.47;27.85;;;8.20;99.90;;;;;;4976901;28;20063;-75
2022/11/14 10:45:25;;;;;;;32.00;16.13;;;8.30;99.90;;;;;;4912692;28;20051;-74
2022/11/14 10:47:57;;;;;;;45.45;30.42;;;8.30;99.90;;;;;;4966231;28;20051;-75
2022/11/14 10:50:40;;;;;;;;;;;8.30;99.90;;;;;;4968706;28;20059;-76
2022/11/14 10:53:10;;;;;;;;;;;8.20;99.90;;;;;;4968604;28;19930;-75
2022/11/14 10:55:35;;;;;;;37.00;20.70;;;8.20;99.90;;;;;;4986535;28;19930;-74
2022/11/14 10:58:07;;;;;;;43.45;26.60;;;8.30;99.90;;;;;;4985582;28;20479;-76
2022/11/14 11:00:33;;;;;;;42.15;28.02;;;8.30;99.90;;;;;;4957437;28;20186;-75
2022/11/14 11:02:58;;;;;;;41.75;26.92;;;8.30;99.90;;;;;;4965956;28;20673;-77
2022/11/14 11:05:29;;;;;;;45.67;30.17;;;8.40;99.90;;;;;;4949732;28;20395;-74
2022/11/14 11:13:35;;;;;;;42.90;28.48;;;8.50;99.90;;;;;;4991922;28;20059;-75
2022/11/14 11:16:03;;;;;;;43.40;31.30;;;8.50;99.90;;;;;;4980545;28;20051;-76
2022/11/14 11:18:34;;;;;;;44.72;29.83;;;8.50;99.90;;;;;;4964224;28;20720;-76
2022/11/14 11:21:04;;;;;;;43.47;29.60;;;8.40;99.90;;;;;;4982089;28;20062;-76
2022/11/14 11:23:30;;;;;;;41.85;29.42;;;8.50;99.90;;;;;;4980935;28;20130;-77
2022/11/14 11:26:14;;;;;;;43.88;31.17;;;8.50;99.90;;;;;;4960346;28;20202;-75
2022/11/14 11:28:40;;;;;;;38.70;26.48;;;8.50;99.90;;;;;;4957986;28;20062;-76
2022/11/14 11:31:07;;;;;;;40.40;27.85;;;8.50;99.90;;;;;;4985346;28;20484;-79
2022/11/14 11:33:38;;;;;;;40.53;29.00;;;8.50;99.90;;;;;;4967752;28;20077;-77
2022/11/14 11:36:17;;;;;;;41.95;28.88;;;8.50;99.90;;;;;;4982400;28;20101;-76
2022/11/14 11:38:44;;;;;;;40.42;28.40;;;8.50;99.90;;;;;;4971935;28;20054;-77
2022/11/14 11:41:40;;;;;;;41.90;28.85;;;8.50;99.90;;;;;;4965120;28;20054;-77
2022/11/14 11:44:11;;;;;;;41.47;28.77;;;8.60;99.90;;;;;;4953790;28;20151;-75
2022/11/14 11:46:54;;;;;;;40.03;28.50;;;9.20;99.90;;;;;;4965797;28;20047;-78
2022/11/14 11:49:55;;;;;;;39.47;26.40;;;8.60;99.90;;;;;;4967258;28;20057;-76
2022/11/14 11:52:46;;;;;;;33.67;19.38;;;8.60;99.90;;;;;;4968230;28;20499;-76
2022/11/14 11:55:25;;;;;;;36.95;25.58;;;8.80;99.90;;;;;;4966659;28;20499;-76
2022/11/14 11:58:11;;;;;;;35.85;21.92;;;8.80;99.90;;;;;;4988477;28;20130;-76
2022/11/14 12:00:37;;;;;;;34.45;23.38;;;8.80;99.90;;;;;;4975682;28;20480;-75
2022/11/14 12:03:11;;;;;;;38.80;27.30;;;8.80;99.90;;;;;;4966349;28;20055;-74
2022/11/14 12:05:45;;;;;;;38.17;27.48;;;8.80;99.90;;;;;;4959203;28;20070;-75
2022/11/14 12:08:42;;;;;;;40.40;28.65;;;8.80;99.90;;;;;;4959198;28;20043;-74
2022/11/14 12:11:14;;;;;;;39.25;29.13;;;8.80;99.90;;;;;;4970934;28;20069;-77
2022/11/14 12:13:57;;;;;;;;;;;8.80;99.90;;;;;;4976962;28;20058;-75
2022/11/14 12:16:31;;;;;;;38.63;25.40;;;8.80;99.90;;;;;;4977566;28;20282;-76
2022/11/14 12:19:15;;;;;;;37.25;27.15;;;9.00;99.90;;;;;;4964575;28;20042;-77
2022/11/14 12:21:47;;;;;;;31.45;18.90;;;9.00;99.90;;;;;;4980715;28;20055;-77
2022/11/14 12:24:37;;;;;;;37.60;25.98;;;9.00;99.90;;;;;;4977902;28;20431;-75
2022/11/14 12:27:14;;;;;;;37.65;25.65;;;9.00;99.90;;;;;;4966870;28;20506;-76
2022/11/14 12:30:01;;;;;;;29.38;19.73;;;9.00;99.90;;;;;;4970135;28;20054;-74
2022/11/14 12:32:41;;;;;;;31.25;21.95;;;9.10;99.90;;;;;;4961693;28;21210;-75
2022/11/14 12:35:17;;;;;;;32.97;22.25;;;9.10;99.90;;;;;;4957591;28;20077;-76
2022/11/14 12:37:45;;;;;;;32.33;22.77;;;9.10;99.90;;;;;;4970086;28;20054;-75
2022/11/14 12:40:37;;;;;;;37.65;26.77;;;9.00;99.90;;;;;;4971991;28;20045;-75
2022/11/14 12:43:23;;;;;;;32.78;21.75;;;9.00;99.90;;;;;;4965763;28;20054;-74
2022/11/14 12:45:51;;;;;;;33.38;25.65;;;9.10;99.90;;;;;;4979137;28;20058;-77
2022/11/14 12:48:27;;;;;;;35.40;25.70;;;9.00;99.90;;;;;;4961721;28;20054;-76
2022/11/14 12:50:54;;;;;;;32.08;24.27;;;9.00;99.90;;;;;;4962888;28;20380;-77
2022/11/14 12:53:40;;;;;;;34.80;25.63;;;9.00;99.90;;;;;;4963308;28;20065;-75